sensor_id;sensor_type;location;lat;lon;timestamp;P1;durP1;ratioP1;P2;durP2;ratioP2
7432;SDS011;32233;49.500;7.764;2023-04-15T00:01:49;4.50;;;1.90;;
7432;SDS011;32233;49.500;7.764;2023-04-15T00:04:16;6.90;;;1.70;;
7432;SDS011;32233;49.500;7.764;2023-04-15T00:06:48;3.90;;;1.20;;
7432;SDS011;32233;49.500;7.764;2023-04-15T00:09:16;2.60;;;1.13;;
7432;SDS011;32233;49.500;7.764;2023-04-15T00:11:44;4.20;;;1.20;;
7432;SDS011;32233;49.500;7.764;2023-04-15T00:14:12;2.07;;;1.10;;
7432;SDS011;32233;49.500;7.764;2023-04-15T00:16:38;5.70;;;1.40;;
7432;SDS011;32233;49.500;7.764;2023-04-15T00:19:05;3.20;;;1.57;;
7432;SDS011;32233;49.500;7.764;2023-04-15T00:21:31;4.57;;;1.30;;
7432;SDS011;32233;49.500;7.764;2023-04-15T00:23:58;5.87;;;1.77;;
7432;SDS011;32233;49.500;7.764;2023-04-15T00:26:24;2.93;;;1.60;;
7432;SDS011;32233;49.500;7.764;2023-04-15T00:28:51;4.63;;;1.80;;
7432;SDS011;32233;49.500;7.764;2023-04-15T00:31:19;6.40;;;2.07;;
7432;SDS011;32233;49.500;7.764;2023-04-15T00:33:46;4.33;;;1.80;;
7432;SDS011;32233;49.500;7.764;2023-04-15T00:36:13;5.20;;;1.80;;
7432;SDS011;32233;49.500;7.764;2023-04-15T00:38:40;6.07;;;1.80;;
7432;SDS011;32233;49.500;7.764;2023-04-15T00:41:07;5.60;;;1.70;;
7432;SDS011;32233;49.500;7.764;2023-04-15T00:43:35;2.63;;;1.70;;
7432;SDS011;32233;49.500;7.764;2023-04-15T00:46:03;5.70;;;2.00;;
7432;SDS011;32233;49.500;7.764;2023-04-15T00:48:30;5.03;;;2.30;;
7432;SDS011;32233;49.500;7.764;2023-04-15T00:50:57;5.50;;;2.00;;
7432;SDS011;32233;49.500;7.764;2023-04-15T00:53:24;3.77;;;1.63;;
7432;SDS011;32233;49.500;7.764;2023-04-15T00:55:51;4.33;;;1.90;;
7432;SDS011;32233;49.500;7.764;2023-04-15T00:58:18;4.13;;;1.80;;
7432;SDS011;32233;49.500;7.764;2023-04-15T01:00:45;4.07;;;1.70;;
7432;SDS011;32233;49.500;7.764;2023-04-15T01:03:12;6.57;;;1.90;;
7432;SDS011;32233;49.500;7.764;2023-04-15T01:05:39;4.30;;;2.10;;
7432;SDS011;32233;49.500;7.764;2023-04-15T01:08:06;4.20;;;2.30;;
7432;SDS011;32233;49.500;7.764;2023-04-15T01:10:33;4.23;;;2.27;;
7432;SDS011;32233;49.500;7.764;2023-04-15T01:13:01;6.33;;;2.23;;
7432;SDS011;32233;49.500;7.764;2023-04-15T01:15:28;8.10;;;2.20;;
7432;SDS011;32233;49.500;7.764;2023-04-15T01:17:57;5.00;;;2.30;;
7432;SDS011;32233;49.500;7.764;2023-04-15T01:20:24;5.67;;;2.03;;
7432;SDS011;32233;49.500;7.764;2023-04-15T01:22:51;3.83;;;2.10;;
7432;SDS011;32233;49.500;7.764;2023-04-15T01:25:30;4.67;;;2.00;;
7432;SDS011;32233;49.500;7.764;2023-04-15T01:27:58;6.43;;;3.00;;
7432;SDS011;32233;49.500;7.764;2023-04-15T01:30:25;6.57;;;3.67;;
7432;SDS011;32233;49.500;7.764;2023-04-15T01:32:52;4.27;;;2.90;;
7432;SDS011;32233;49.500;7.764;2023-04-15T01:35:19;4.80;;;2.73;;
7432;SDS011;32233;49.500;7.764;2023-04-15T01:37:46;4.90;;;2.87;;
7432;SDS011;32233;49.500;7.764;2023-04-15T01:40:15;6.87;;;3.13;;
7432;SDS011;32233;49.500;7.764;2023-04-15T01:42:42;7.23;;;2.53;;
7432;SDS011;32233;49.500;7.764;2023-04-15T01:45:09;7.67;;;2.63;;
7432;SDS011;32233;49.500;7.764;2023-04-15T01:47:36;6.30;;;2.43;;
7432;SDS011;32233;49.500;7.764;2023-04-15T01:50:03;6.90;;;1.97;;
7432;SDS011;32233;49.500;7.764;2023-04-15T01:52:30;3.03;;;1.63;;
7432;SDS011;32233;49.500;7.764;2023-04-15T01:54:57;5.03;;;1.87;;
7432;SDS011;32233;49.500;7.764;2023-04-15T01:57:23;3.80;;;1.80;;
7432;SDS011;32233;49.500;7.764;2023-04-15T01:59:50;3.80;;;1.93;;
7432;SDS011;32233;49.500;7.764;2023-04-15T02:02:16;5.07;;;2.07;;
7432;SDS011;32233;49.500;7.764;2023-04-15T02:04:43;4.33;;;2.20;;
7432;SDS011;32233;49.500;7.764;2023-04-15T02:07:10;6.27;;;2.33;;
7432;SDS011;32233;49.500;7.764;2023-04-15T02:09:37;4.53;;;1.90;;
7432;SDS011;32233;49.500;7.764;2023-04-15T02:12:06;9.27;;;2.33;;
7432;SDS011;32233;49.500;7.764;2023-04-15T02:14:32;5.43;;;2.10;;
7432;SDS011;32233;49.500;7.764;2023-04-15T02:16:59;3.83;;;1.93;;
7432;SDS011;32233;49.500;7.764;2023-04-15T02:19:32;4.43;;;2.10;;
7432;SDS011;32233;49.500;7.764;2023-04-15T02:22:01;3.33;;;1.87;;
7432;SDS011;32233;49.500;7.764;2023-04-15T02:24:29;5.77;;;1.97;;
7432;SDS011;32233;49.500;7.764;2023-04-15T02:26:56;3.03;;;1.80;;
7432;SDS011;32233;49.500;7.764;2023-04-15T02:29:22;5.30;;;2.00;;
7432;SDS011;32233;49.500;7.764;2023-04-15T02:31:49;5.43;;;2.10;;
7432;SDS011;32233;49.500;7.764;2023-04-15T02:34:16;3.93;;;2.13;;
7432;SDS011;32233;49.500;7.764;2023-04-15T02:36:43;3.77;;;2.00;;
7432;SDS011;32233;49.500;7.764;2023-04-15T02:39:11;3.07;;;2.00;;
7432;SDS011;32233;49.500;7.764;2023-04-15T02:41:39;2.97;;;1.90;;
7432;SDS011;32233;49.500;7.764;2023-04-15T02:44:09;5.13;;;2.00;;
7432;SDS011;32233;49.500;7.764;2023-04-15T02:46:39;5.17;;;2.03;;
7432;SDS011;32233;49.500;7.764;2023-04-15T02:49:06;3.27;;;1.83;;
7432;SDS011;32233;49.500;7.764;2023-04-15T02:51:34;3.30;;;2.17;;
7432;SDS011;32233;49.500;7.764;2023-04-15T02:54:01;4.70;;;1.90;;
7432;SDS011;32233;49.500;7.764;2023-04-15T02:56:27;5.43;;;2.37;;
7432;SDS011;32233;49.500;7.764;2023-04-15T02:58:55;3.83;;;2.20;;
7432;SDS011;32233;49.500;7.764;2023-04-15T03:01:22;4.33;;;2.00;;
7432;SDS011;32233;49.500;7.764;2023-04-15T03:03:49;6.13;;;2.00;;
7432;SDS011;32233;49.500;7.764;2023-04-15T03:06:15;3.70;;;1.97;;
7432;SDS011;32233;49.500;7.764;2023-04-15T03:08:42;3.43;;;2.07;;
7432;SDS011;32233;49.500;7.764;2023-04-15T03:11:09;3.87;;;2.00;;
7432;SDS011;32233;49.500;7.764;2023-04-15T03:13:36;4.67;;;2.10;;
7432;SDS011;32233;49.500;7.764;2023-04-15T03:16:09;3.07;;;1.90;;
7432;SDS011;32233;49.500;7.764;2023-04-15T03:18:37;5.37;;;2.07;;
7432;SDS011;32233;49.500;7.764;2023-04-15T03:21:03;4.43;;;1.77;;
7432;SDS011;32233;49.500;7.764;2023-04-15T03:23:33;4.33;;;1.90;;
7432;SDS011;32233;49.500;7.764;2023-04-15T03:26:00;4.43;;;1.50;;
7432;SDS011;32233;49.500;7.764;2023-04-15T03:28:29;6.30;;;1.90;;
7432;SDS011;32233;49.500;7.764;2023-04-15T03:30:58;3.17;;;1.60;;
7432;SDS011;32233;49.500;7.764;2023-04-15T03:33:25;2.00;;;1.50;;
7432;SDS011;32233;49.500;7.764;2023-04-15T03:35:52;2.10;;;1.60;;
7432;SDS011;32233;49.500;7.764;2023-04-15T03:38:18;3.20;;;1.57;;
7432;SDS011;32233;49.500;7.764;2023-04-15T03:40:45;2.93;;;1.60;;
7432;SDS011;32233;49.500;7.764;2023-04-15T03:43:12;2.90;;;1.70;;
7432;SDS011;32233;49.500;7.764;2023-04-15T03:45:38;5.13;;;1.60;;
7432;SDS011;32233;49.500;7.764;2023-04-15T03:48:05;4.13;;;1.87;;
7432;SDS011;32233;49.500;7.764;2023-04-15T03:50:42;3.63;;;1.83;;
7432;SDS011;32233;49.500;7.764;2023-04-15T03:53:09;2.80;;;1.90;;
7432;SDS011;32233;49.500;7.764;2023-04-15T03:55:35;3.60;;;1.87;;
7432;SDS011;32233;49.500;7.764;2023-04-15T03:58:02;3.27;;;1.87;;
7432;SDS011;32233;49.500;7.764;2023-04-15T04:00:28;4.47;;;2.00;;
7432;SDS011;32233;49.500;7.764;2023-04-15T04:02:55;4.27;;;1.90;;
7432;SDS011;32233;49.500;7.764;2023-04-15T04:05:22;2.23;;;1.97;;
7432;SDS011;32233;49.500;7.764;2023-04-15T04:07:48;3.90;;;1.80;;
7432;SDS011;32233;49.500;7.764;2023-04-15T04:10:15;4.40;;;1.80;;
7432;SDS011;32233;49.500;7.764;2023-04-15T04:12:42;2.97;;;2.00;;
7432;SDS011;32233;49.500;7.764;2023-04-15T04:15:08;2.90;;;1.37;;
7432;SDS011;32233;49.500;7.764;2023-04-15T04:17:35;3.80;;;1.90;;
7432;SDS011;32233;49.500;7.764;2023-04-15T04:20:02;2.93;;;1.67;;
7432;SDS011;32233;49.500;7.764;2023-04-15T04:22:28;3.13;;;1.83;;
7432;SDS011;32233;49.500;7.764;2023-04-15T04:24:55;4.53;;;1.90;;
7432;SDS011;32233;49.500;7.764;2023-04-15T04:27:21;4.37;;;2.07;;
7432;SDS011;32233;49.500;7.764;2023-04-15T04:29:48;5.57;;;2.00;;
7432;SDS011;32233;49.500;7.764;2023-04-15T04:32:18;5.67;;;1.93;;
7432;SDS011;32233;49.500;7.764;2023-04-15T04:34:45;4.00;;;1.70;;
7432;SDS011;32233;49.500;7.764;2023-04-15T04:37:12;3.10;;;1.87;;
7432;SDS011;32233;49.500;7.764;2023-04-15T04:39:39;3.20;;;1.80;;
7432;SDS011;32233;49.500;7.764;2023-04-15T04:42:05;2.07;;;1.43;;
7432;SDS011;32233;49.500;7.764;2023-04-15T04:44:32;2.97;;;1.80;;
7432;SDS011;32233;49.500;7.764;2023-04-15T04:46:58;2.93;;;2.20;;
7432;SDS011;32233;49.500;7.764;2023-04-15T04:49:25;3.13;;;1.70;;
7432;SDS011;32233;49.500;7.764;2023-04-15T04:51:51;4.53;;;1.60;;
7432;SDS011;32233;49.500;7.764;2023-04-15T04:54:18;3.00;;;2.00;;
7432;SDS011;32233;49.500;7.764;2023-04-15T04:56:45;3.47;;;1.90;;
7432;SDS011;32233;49.500;7.764;2023-04-15T04:59:11;3.13;;;1.80;;
7432;SDS011;32233;49.500;7.764;2023-04-15T05:01:38;4.37;;;1.80;;
7432;SDS011;32233;49.500;7.764;2023-04-15T05:04:04;3.93;;;2.00;;
7432;SDS011;32233;49.500;7.764;2023-04-15T05:06:33;4.77;;;2.40;;
7432;SDS011;32233;49.500;7.764;2023-04-15T05:09:01;4.17;;;2.43;;
7432;SDS011;32233;49.500;7.764;2023-04-15T05:11:29;4.97;;;2.53;;
7432;SDS011;32233;49.500;7.764;2023-04-15T05:13:55;7.93;;;2.50;;
7432;SDS011;32233;49.500;7.764;2023-04-15T05:16:23;4.70;;;2.13;;
7432;SDS011;32233;49.500;7.764;2023-04-15T05:18:51;2.83;;;1.93;;
7432;SDS011;32233;49.500;7.764;2023-04-15T05:21:17;5.77;;;2.10;;
7432;SDS011;32233;49.500;7.764;2023-04-15T05:23:44;4.90;;;2.30;;
7432;SDS011;32233;49.500;7.764;2023-04-15T05:26:11;4.87;;;2.03;;
7432;SDS011;32233;49.500;7.764;2023-04-15T05:28:37;3.00;;;1.93;;
7432;SDS011;32233;49.500;7.764;2023-04-15T05:31:04;5.83;;;2.10;;
7432;SDS011;32233;49.500;7.764;2023-04-15T05:33:31;3.27;;;1.87;;
7432;SDS011;32233;49.500;7.764;2023-04-15T05:35:57;6.57;;;1.93;;
7432;SDS011;32233;49.500;7.764;2023-04-15T05:38:24;3.67;;;1.60;;
7432;SDS011;32233;49.500;7.764;2023-04-15T05:40:50;3.40;;;1.70;;
7432;SDS011;32233;49.500;7.764;2023-04-15T05:43:17;5.30;;;2.30;;
7432;SDS011;32233;49.500;7.764;2023-04-15T05:45:43;4.93;;;2.07;;
7432;SDS011;32233;49.500;7.764;2023-04-15T05:48:10;3.50;;;1.87;;
7432;SDS011;32233;49.500;7.764;2023-04-15T05:50:39;3.53;;;2.00;;
7432;SDS011;32233;49.500;7.764;2023-04-15T05:53:08;3.43;;;2.40;;
7432;SDS011;32233;49.500;7.764;2023-04-15T05:55:35;3.20;;;2.17;;
7432;SDS011;32233;49.500;7.764;2023-04-15T05:58:02;3.13;;;2.20;;
7432;SDS011;32233;49.500;7.764;2023-04-15T06:00:28;4.33;;;2.43;;
7432;SDS011;32233;49.500;7.764;2023-04-15T06:02:56;2.27;;;1.87;;
7432;SDS011;32233;49.500;7.764;2023-04-15T06:05:24;3.33;;;2.10;;
7432;SDS011;32233;49.500;7.764;2023-04-15T06:07:51;4.50;;;2.27;;
7432;SDS011;32233;49.500;7.764;2023-04-15T06:10:18;3.80;;;2.27;;
7432;SDS011;32233;49.500;7.764;2023-04-15T06:12:44;3.27;;;2.07;;
7432;SDS011;32233;49.500;7.764;2023-04-15T06:15:12;6.57;;;3.03;;
7432;SDS011;32233;49.500;7.764;2023-04-15T06:17:42;5.67;;;2.70;;
7432;SDS011;32233;49.500;7.764;2023-04-15T06:20:09;3.93;;;2.57;;
7432;SDS011;32233;49.500;7.764;2023-04-15T06:22:36;3.67;;;2.33;;
7432;SDS011;32233;49.500;7.764;2023-04-15T06:25:07;2.97;;;2.73;;
7432;SDS011;32233;49.500;7.764;2023-04-15T06:27:34;2.63;;;2.43;;
7432;SDS011;32233;49.500;7.764;2023-04-15T06:30:01;6.67;;;3.67;;
7432;SDS011;32233;49.500;7.764;2023-04-15T06:32:28;4.93;;;3.17;;
7432;SDS011;32233;49.500;7.764;2023-04-15T06:34:54;3.70;;;3.13;;
7432;SDS011;32233;49.500;7.764;2023-04-15T06:37:21;4.30;;;2.80;;
7432;SDS011;32233;49.500;7.764;2023-04-15T06:39:47;4.80;;;2.77;;
7432;SDS011;32233;49.500;7.764;2023-04-15T06:42:14;5.63;;;2.47;;
7432;SDS011;32233;49.500;7.764;2023-04-15T06:44:40;4.10;;;2.30;;
7432;SDS011;32233;49.500;7.764;2023-04-15T06:47:07;4.23;;;1.93;;
7432;SDS011;32233;49.500;7.764;2023-04-15T06:49:34;2.07;;;1.80;;
7432;SDS011;32233;49.500;7.764;2023-04-15T06:52:01;6.07;;;2.10;;
7432;SDS011;32233;49.500;7.764;2023-04-15T06:54:28;3.23;;;1.90;;
7432;SDS011;32233;49.500;7.764;2023-04-15T06:56:54;3.33;;;1.60;;
7432;SDS011;32233;49.500;7.764;2023-04-15T06:59:20;4.83;;;1.83;;
7432;SDS011;32233;49.500;7.764;2023-04-15T07:01:47;2.90;;;1.90;;
7432;SDS011;32233;49.500;7.764;2023-04-15T07:04:13;3.70;;;2.00;;
7432;SDS011;32233;49.500;7.764;2023-04-15T07:06:40;5.07;;;2.10;;
7432;SDS011;32233;49.500;7.764;2023-04-15T07:09:07;7.90;;;4.30;;
7432;SDS011;32233;49.500;7.764;2023-04-15T07:11:33;12.03;;;5.67;;
7432;SDS011;32233;49.500;7.764;2023-04-15T07:14:00;7.70;;;3.43;;
7432;SDS011;32233;49.500;7.764;2023-04-15T07:16:26;7.47;;;3.23;;
7432;SDS011;32233;49.500;7.764;2023-04-15T07:18:55;5.13;;;3.37;;
7432;SDS011;32233;49.500;7.764;2023-04-15T07:21:22;4.33;;;2.30;;
7432;SDS011;32233;49.500;7.764;2023-04-15T07:23:49;5.47;;;2.20;;
7432;SDS011;32233;49.500;7.764;2023-04-15T07:26:16;4.03;;;1.77;;
7432;SDS011;32233;49.500;7.764;2023-04-15T07:28:42;3.43;;;2.13;;
7432;SDS011;32233;49.500;7.764;2023-04-15T07:31:09;2.67;;;2.10;;
7432;SDS011;32233;49.500;7.764;2023-04-15T07:33:35;3.63;;;2.27;;
7432;SDS011;32233;49.500;7.764;2023-04-15T07:36:02;2.07;;;1.87;;
7432;SDS011;32233;49.500;7.764;2023-04-15T07:38:28;5.67;;;2.47;;
7432;SDS011;32233;49.500;7.764;2023-04-15T07:40:55;2.47;;;2.23;;
7432;SDS011;32233;49.500;7.764;2023-04-15T07:43:21;5.40;;;2.20;;
7432;SDS011;32233;49.500;7.764;2023-04-15T07:45:48;4.63;;;2.10;;
7432;SDS011;32233;49.500;7.764;2023-04-15T07:48:14;4.90;;;1.87;;
7432;SDS011;32233;49.500;7.764;2023-04-15T07:50:41;3.73;;;1.80;;
7432;SDS011;32233;49.500;7.764;2023-04-15T07:53:08;6.67;;;1.87;;
7432;SDS011;32233;49.500;7.764;2023-04-15T07:55:34;3.70;;;2.13;;
7432;SDS011;32233;49.500;7.764;2023-04-15T07:58:01;1.93;;;1.73;;
7432;SDS011;32233;49.500;7.764;2023-04-15T08:00:27;3.53;;;2.27;;
7432;SDS011;32233;49.500;7.764;2023-04-15T08:02:55;2.63;;;2.03;;
7432;SDS011;32233;49.500;7.764;2023-04-15T08:05:22;2.63;;;1.80;;
7432;SDS011;32233;49.500;7.764;2023-04-15T08:07:49;3.17;;;1.80;;
7432;SDS011;32233;49.500;7.764;2023-04-15T08:10:16;3.50;;;2.00;;
7432;SDS011;32233;49.500;7.764;2023-04-15T08:12:42;3.80;;;2.10;;
7432;SDS011;32233;49.500;7.764;2023-04-15T08:15:11;3.73;;;2.10;;
7432;SDS011;32233;49.500;7.764;2023-04-15T08:17:38;2.60;;;2.07;;
7432;SDS011;32233;49.500;7.764;2023-04-15T08:20:05;2.83;;;1.60;;
7432;SDS011;32233;49.500;7.764;2023-04-15T08:22:32;4.77;;;2.00;;
7432;SDS011;32233;49.500;7.764;2023-04-15T08:24:59;4.17;;;2.20;;
7432;SDS011;32233;49.500;7.764;2023-04-15T08:27:26;4.83;;;1.63;;
7432;SDS011;32233;49.500;7.764;2023-04-15T08:29:52;3.47;;;1.90;;
7432;SDS011;32233;49.500;7.764;2023-04-15T08:32:19;4.43;;;1.93;;
7432;SDS011;32233;49.500;7.764;2023-04-15T08:34:45;3.67;;;1.70;;
7432;SDS011;32233;49.500;7.764;2023-04-15T08:37:12;4.03;;;2.00;;
7432;SDS011;32233;49.500;7.764;2023-04-15T08:39:38;5.33;;;1.77;;
7432;SDS011;32233;49.500;7.764;2023-04-15T08:42:07;2.73;;;1.87;;
7432;SDS011;32233;49.500;7.764;2023-04-15T08:44:41;2.50;;;1.93;;
7432;SDS011;32233;49.500;7.764;2023-04-15T08:47:09;3.00;;;1.67;;
7432;SDS011;32233;49.500;7.764;2023-04-15T08:49:39;4.10;;;2.13;;
7432;SDS011;32233;49.500;7.764;2023-04-15T08:52:09;2.50;;;1.87;;
7432;SDS011;32233;49.500;7.764;2023-04-15T08:54:35;3.00;;;1.90;;
7432;SDS011;32233;49.500;7.764;2023-04-15T08:57:03;2.93;;;1.87;;
7432;SDS011;32233;49.500;7.764;2023-04-15T08:59:31;2.97;;;1.90;;
7432;SDS011;32233;49.500;7.764;2023-04-15T09:02:00;3.40;;;1.90;;
7432;SDS011;32233;49.500;7.764;2023-04-15T09:04:27;4.27;;;2.37;;
7432;SDS011;32233;49.500;7.764;2023-04-15T09:06:54;4.00;;;2.10;;
7432;SDS011;32233;49.500;7.764;2023-04-15T09:09:23;2.80;;;1.60;;
7432;SDS011;32233;49.500;7.764;2023-04-15T09:11:49;4.03;;;1.80;;
7432;SDS011;32233;49.500;7.764;2023-04-15T09:14:16;3.43;;;1.83;;
7432;SDS011;32233;49.500;7.764;2023-04-15T09:16:55;3.83;;;2.10;;
7432;SDS011;32233;49.500;7.764;2023-04-15T09:19:29;4.67;;;2.03;;
7432;SDS011;32233;49.500;7.764;2023-04-15T09:21:57;3.07;;;2.17;;
7432;SDS011;32233;49.500;7.764;2023-04-15T09:24:25;2.60;;;1.57;;
7432;SDS011;32233;49.500;7.764;2023-04-15T09:27:01;3.73;;;1.70;;
7432;SDS011;32233;49.500;7.764;2023-04-15T09:29:28;5.07;;;1.40;;
7432;SDS011;32233;49.500;7.764;2023-04-15T09:31:55;2.63;;;1.33;;
7432;SDS011;32233;49.500;7.764;2023-04-15T09:34:22;3.77;;;1.27;;
7432;SDS011;32233;49.500;7.764;2023-04-15T09:37:01;2.77;;;1.20;;
7432;SDS011;32233;49.500;7.764;2023-04-15T09:39:43;3.67;;;1.00;;
7432;SDS011;32233;49.500;7.764;2023-04-15T09:42:12;2.33;;;1.30;;
7432;SDS011;32233;49.500;7.764;2023-04-15T09:44:39;5.87;;;1.97;;
7432;SDS011;32233;49.500;7.764;2023-04-15T09:47:05;2.17;;;1.00;;
7432;SDS011;32233;49.500;7.764;2023-04-15T09:49:32;3.77;;;1.30;;
7432;SDS011;32233;49.500;7.764;2023-04-15T09:51:59;1.87;;;1.00;;
7432;SDS011;32233;49.500;7.764;2023-04-15T09:54:32;4.53;;;1.00;;
7432;SDS011;32233;49.500;7.764;2023-04-15T09:57:03;1.40;;;1.07;;
7432;SDS011;32233;49.500;7.764;2023-04-15T09:59:35;3.77;;;1.17;;
7432;SDS011;32233;49.500;7.764;2023-04-15T10:02:04;4.63;;;1.30;;
7432;SDS011;32233;49.500;7.764;2023-04-15T10:04:38;3.70;;;1.13;;
7432;SDS011;32233;49.500;7.764;2023-04-15T10:07:10;3.13;;;1.30;;
7432;SDS011;32233;49.500;7.764;2023-04-15T10:09:38;2.87;;;1.23;;
7432;SDS011;32233;49.500;7.764;2023-04-15T10:12:05;2.33;;;1.30;;
7432;SDS011;32233;49.500;7.764;2023-04-15T10:14:32;4.33;;;1.37;;
7432;SDS011;32233;49.500;7.764;2023-04-15T10:17:01;5.30;;;1.50;;
7432;SDS011;32233;49.500;7.764;2023-04-15T10:19:30;3.73;;;1.40;;
7432;SDS011;32233;49.500;7.764;2023-04-15T10:21:58;3.27;;;1.40;;
7432;SDS011;32233;49.500;7.764;2023-04-15T10:24:25;3.63;;;1.37;;
7432;SDS011;32233;49.500;7.764;2023-04-15T10:26:53;2.93;;;1.43;;
7432;SDS011;32233;49.500;7.764;2023-04-15T10:29:20;3.10;;;1.43;;
7432;SDS011;32233;49.500;7.764;2023-04-15T10:31:48;3.03;;;1.80;;
7432;SDS011;32233;49.500;7.764;2023-04-15T10:34:15;2.73;;;1.70;;
7432;SDS011;32233;49.500;7.764;2023-04-15T10:36:43;4.60;;;1.67;;
7432;SDS011;32233;49.500;7.764;2023-04-15T10:44:40;2.83;;;1.47;;
7432;SDS011;32233;49.500;7.764;2023-04-15T10:47:12;2.50;;;1.17;;
7432;SDS011;32233;49.500;7.764;2023-04-15T10:52:16;3.20;;;1.57;;
7432;SDS011;32233;49.500;7.764;2023-04-15T10:54:48;3.87;;;1.40;;
7432;SDS011;32233;49.500;7.764;2023-04-15T10:57:23;1.87;;;1.23;;
7432;SDS011;32233;49.500;7.764;2023-04-15T11:02:41;5.17;;;1.20;;
7432;SDS011;32233;49.500;7.764;2023-04-15T11:05:12;4.40;;;2.10;;
7432;SDS011;32233;49.500;7.764;2023-04-15T11:07:41;3.40;;;1.70;;
7432;SDS011;32233;49.500;7.764;2023-04-15T11:12:44;3.67;;;1.60;;
7432;SDS011;32233;49.500;7.764;2023-04-15T11:18:51;2.50;;;2.00;;
7432;SDS011;32233;49.500;7.764;2023-04-15T11:20:48;2.60;;;1.80;;
7432;SDS011;32233;49.500;7.764;2023-04-15T11:23:17;4.10;;;2.20;;
7432;SDS011;32233;49.500;7.764;2023-04-15T11:25:45;4.13;;;2.13;;
7432;SDS011;32233;49.500;7.764;2023-04-15T11:28:12;6.30;;;2.60;;
7432;SDS011;32233;49.500;7.764;2023-04-15T11:30:39;3.83;;;2.07;;
7432;SDS011;32233;49.500;7.764;2023-04-15T11:33:07;3.20;;;1.70;;
7432;SDS011;32233;49.500;7.764;2023-04-15T11:35:36;2.97;;;1.57;;
7432;SDS011;32233;49.500;7.764;2023-04-15T11:38:03;4.00;;;1.87;;
7432;SDS011;32233;49.500;7.764;2023-04-15T11:40:31;3.50;;;2.30;;
7432;SDS011;32233;49.500;7.764;2023-04-15T11:43:05;2.07;;;1.83;;
7432;SDS011;32233;49.500;7.764;2023-04-15T11:48:26;3.30;;;1.80;;
7432;SDS011;32233;49.500;7.764;2023-04-15T11:51:02;2.90;;;1.83;;
7432;SDS011;32233;49.500;7.764;2023-04-15T11:53:37;2.80;;;2.07;;
7432;SDS011;32233;49.500;7.764;2023-04-15T11:56:18;3.83;;;2.03;;
7432;SDS011;32233;49.500;7.764;2023-04-15T11:58:47;2.80;;;1.70;;
7432;SDS011;32233;49.500;7.764;2023-04-15T12:01:16;5.57;;;2.10;;
7432;SDS011;32233;49.500;7.764;2023-04-15T12:03:44;3.87;;;2.07;;
7432;SDS011;32233;49.500;7.764;2023-04-15T12:11:20;3.20;;;2.10;;
7432;SDS011;32233;49.500;7.764;2023-04-15T12:13:56;2.30;;;1.50;;
7432;SDS011;32233;49.500;7.764;2023-04-15T12:16:26;4.17;;;1.60;;
7432;SDS011;32233;49.500;7.764;2023-04-15T12:18:54;2.57;;;1.90;;
7432;SDS011;32233;49.500;7.764;2023-04-15T12:21:23;2.60;;;1.70;;
7432;SDS011;32233;49.500;7.764;2023-04-15T12:23:54;2.87;;;1.50;;
7432;SDS011;32233;49.500;7.764;2023-04-15T12:26:30;4.67;;;1.50;;
7432;SDS011;32233;49.500;7.764;2023-04-15T12:29:01;4.10;;;1.83;;
7432;SDS011;32233;49.500;7.764;2023-04-15T12:31:29;1.80;;;1.40;;
7432;SDS011;32233;49.500;7.764;2023-04-15T12:33:56;3.23;;;1.43;;
7432;SDS011;32233;49.500;7.764;2023-04-15T12:36:23;2.00;;;1.60;;
7432;SDS011;32233;49.500;7.764;2023-04-15T12:38:50;3.07;;;1.70;;
7432;SDS011;32233;49.500;7.764;2023-04-15T12:41:17;6.23;;;1.60;;
7432;SDS011;32233;49.500;7.764;2023-04-15T12:43:45;2.17;;;1.30;;
7432;SDS011;32233;49.500;7.764;2023-04-15T12:46:14;2.70;;;1.40;;
7432;SDS011;32233;49.500;7.764;2023-04-15T12:48:41;3.07;;;1.87;;
7432;SDS011;32233;49.500;7.764;2023-04-15T12:51:07;3.57;;;1.50;;
7432;SDS011;32233;49.500;7.764;2023-04-15T12:53:34;3.83;;;2.17;;
7432;SDS011;32233;49.500;7.764;2023-04-15T12:56:00;2.70;;;1.90;;
7432;SDS011;32233;49.500;7.764;2023-04-15T12:58:27;2.30;;;1.70;;
7432;SDS011;32233;49.500;7.764;2023-04-15T13:00:54;2.27;;;1.70;;
7432;SDS011;32233;49.500;7.764;2023-04-15T13:03:20;2.67;;;1.80;;
7432;SDS011;32233;49.500;7.764;2023-04-15T13:05:47;1.80;;;1.70;;
7432;SDS011;32233;49.500;7.764;2023-04-15T13:08:13;2.97;;;2.10;;
7432;SDS011;32233;49.500;7.764;2023-04-15T13:10:40;1.70;;;1.50;;
7432;SDS011;32233;49.500;7.764;2023-04-15T13:13:07;2.60;;;1.60;;
7432;SDS011;32233;49.500;7.764;2023-04-15T13:15:34;2.60;;;1.70;;
7432;SDS011;32233;49.500;7.764;2023-04-15T13:18:04;2.47;;;1.60;;
7432;SDS011;32233;49.500;7.764;2023-04-15T13:20:31;1.97;;;1.57;;
7432;SDS011;32233;49.500;7.764;2023-04-15T13:22:58;2.03;;;1.83;;
7432;SDS011;32233;49.500;7.764;2023-04-15T13:25:25;2.40;;;1.70;;
7432;SDS011;32233;49.500;7.764;2023-04-15T13:27:52;1.80;;;1.53;;
7432;SDS011;32233;49.500;7.764;2023-04-15T13:30:18;3.10;;;1.83;;
7432;SDS011;32233;49.500;7.764;2023-04-15T13:32:45;3.83;;;1.50;;
7432;SDS011;32233;49.500;7.764;2023-04-15T13:35:15;2.10;;;1.90;;
7432;SDS011;32233;49.500;7.764;2023-04-15T13:37:42;2.60;;;1.40;;
7432;SDS011;32233;49.500;7.764;2023-04-15T13:40:08;1.77;;;1.50;;
7432;SDS011;32233;49.500;7.764;2023-04-15T13:42:35;2.30;;;1.77;;
7432;SDS011;32233;49.500;7.764;2023-04-15T13:45:02;2.47;;;1.50;;
7432;SDS011;32233;49.500;7.764;2023-04-15T13:47:29;2.37;;;1.70;;
7432;SDS011;32233;49.500;7.764;2023-04-15T13:49:56;1.73;;;1.47;;
7432;SDS011;32233;49.500;7.764;2023-04-15T13:52:23;1.87;;;1.50;;
7432;SDS011;32233;49.500;7.764;2023-04-15T13:54:49;2.50;;;1.60;;
7432;SDS011;32233;49.500;7.764;2023-04-15T13:57:36;2.87;;;1.73;;
7432;SDS011;32233;49.500;7.764;2023-04-15T14:00:02;2.13;;;1.80;;
7432;SDS011;32233;49.500;7.764;2023-04-15T14:02:31;2.70;;;1.60;;
7432;SDS011;32233;49.500;7.764;2023-04-15T14:04:58;3.03;;;1.60;;
7432;SDS011;32233;49.500;7.764;2023-04-15T14:07:24;1.97;;;1.77;;
7432;SDS011;32233;49.500;7.764;2023-04-15T14:09:51;1.63;;;1.53;;
7432;SDS011;32233;49.500;7.764;2023-04-15T14:12:17;2.27;;;1.50;;
7432;SDS011;32233;49.500;7.764;2023-04-15T14:14:44;1.87;;;1.30;;
7432;SDS011;32233;49.500;7.764;2023-04-15T14:17:11;1.53;;;1.10;;
7432;SDS011;32233;49.500;7.764;2023-04-15T14:19:37;2.10;;;1.10;;
7432;SDS011;32233;49.500;7.764;2023-04-15T14:22:04;2.10;;;1.10;;
7432;SDS011;32233;49.500;7.764;2023-04-15T14:24:31;1.03;;;0.80;;
7432;SDS011;32233;49.500;7.764;2023-04-15T14:26:57;2.77;;;0.80;;
7432;SDS011;32233;49.500;7.764;2023-04-15T14:29:24;1.73;;;0.90;;
7432;SDS011;32233;49.500;7.764;2023-04-15T14:31:51;0.90;;;0.90;;
7432;SDS011;32233;49.500;7.764;2023-04-15T14:34:37;1.17;;;0.80;;
7432;SDS011;32233;49.500;7.764;2023-04-15T14:37:04;0.73;;;0.73;;
7432;SDS011;32233;49.500;7.764;2023-04-15T14:39:31;1.00;;;0.90;;
7432;SDS011;32233;49.500;7.764;2023-04-15T14:41:57;0.97;;;0.90;;
7432;SDS011;32233;49.500;7.764;2023-04-15T14:44:24;1.63;;;1.00;;
7432;SDS011;32233;49.500;7.764;2023-04-15T14:46:50;1.40;;;0.90;;
7432;SDS011;32233;49.500;7.764;2023-04-15T14:49:17;1.20;;;1.10;;
7432;SDS011;32233;49.500;7.764;2023-04-15T14:51:43;1.07;;;0.90;;
7432;SDS011;32233;49.500;7.764;2023-04-15T14:54:11;1.07;;;0.87;;
7432;SDS011;32233;49.500;7.764;2023-04-15T14:56:37;1.47;;;0.80;;
7432;SDS011;32233;49.500;7.764;2023-04-15T14:59:04;1.30;;;0.73;;
7432;SDS011;32233;49.500;7.764;2023-04-15T15:01:31;2.83;;;0.80;;
7432;SDS011;32233;49.500;7.764;2023-04-15T15:03:59;1.60;;;1.00;;
7432;SDS011;32233;49.500;7.764;2023-04-15T15:06:26;1.10;;;0.93;;
7432;SDS011;32233;49.500;7.764;2023-04-15T15:08:53;1.67;;;1.30;;
7432;SDS011;32233;49.500;7.764;2023-04-15T15:11:19;1.93;;;0.90;;
7432;SDS011;32233;49.500;7.764;2023-04-15T15:13:46;2.20;;;1.30;;
7432;SDS011;32233;49.500;7.764;2023-04-15T15:16:12;2.23;;;1.20;;
7432;SDS011;32233;49.500;7.764;2023-04-15T15:18:40;1.70;;;1.20;;
7432;SDS011;32233;49.500;7.764;2023-04-15T15:21:06;2.63;;;1.17;;
7432;SDS011;32233;49.500;7.764;2023-04-15T15:23:33;2.67;;;1.00;;
7432;SDS011;32233;49.500;7.764;2023-04-15T15:25:59;1.23;;;1.00;;
7432;SDS011;32233;49.500;7.764;2023-04-15T15:28:26;0.80;;;0.80;;